createdAt,value
2019-04-11T00:01:12.495Z,9.70
2019-04-11T00:07:16.955Z,9.70
2019-04-11T00:13:24.347Z,9.70
2019-04-11T00:19:23.426Z,9.70
2019-04-11T00:25:28.097Z,9.70
2019-04-11T00:31:32.701Z,9.70
2019-04-11T00:37:35.453Z,9.70
2019-04-11T00:43:41.952Z,9.70
2019-04-11T00:49:43.010Z,9.80
2019-04-11T00:55:46.009Z,9.70
2019-04-11T01:01:51.483Z,9.60
2019-04-11T01:07:55.430Z,9.50
2019-04-11T01:13:59.408Z,9.50
2019-04-11T01:20:02.931Z,9.40
2019-04-11T01:26:08.641Z,9.20
2019-04-11T01:32:13.840Z,9.20
2019-04-11T01:38:16.823Z,9.10
2019-04-11T01:44:20.550Z,9.10
2019-04-11T01:50:25.330Z,9.10
2019-04-11T01:56:29.396Z,9.10
2019-04-11T02:02:47.905Z,9.10
2019-04-11T02:08:59.820Z,9.10
2019-04-11T02:15:04.488Z,9.00
2019-04-11T02:21:06.808Z,8.90
2019-04-11T02:27:14.779Z,9.00
2019-04-11T02:33:18.583Z,9.10
2019-04-11T02:39:22.886Z,9.10
2019-04-11T02:45:39.792Z,9.00
2019-04-11T02:51:31.160Z,8.90
2019-04-11T02:57:36.295Z,8.70
2019-04-11T03:03:42.191Z,8.60
2019-04-11T03:09:48.584Z,8.50
2019-04-11T03:16:07.260Z,8.40
2019-04-11T03:21:57.347Z,8.30
2019-04-11T03:28:09.592Z,8.30
2019-04-11T03:35:02.841Z,8.20
2019-04-11T03:40:36.780Z,8.20
2019-04-11T03:46:43.424Z,8.10
2019-04-11T03:52:30.571Z,8.10
2019-04-11T03:58:39.758Z,8.10
2019-04-11T04:04:46.190Z,8.00
2019-04-11T04:11:08.650Z,7.90
2019-04-11T04:17:30.815Z,7.90
2019-04-11T04:23:37.718Z,7.90
2019-04-11T04:29:41.414Z,7.90
2019-04-11T04:35:44.772Z,7.70
2019-04-11T04:41:58.802Z,7.70
2019-04-11T04:47:58.974Z,7.70
2019-04-11T04:53:58.439Z,7.70
2019-04-11T05:00:03.310Z,7.60
2019-04-11T05:06:10.106Z,7.70
2019-04-11T05:12:13.888Z,7.80
2019-04-11T05:18:20.721Z,7.90
2019-04-11T05:24:23.324Z,8.00
2019-04-11T05:30:27.134Z,8.10
2019-04-11T05:36:32.338Z,8.20
2019-04-11T05:42:35.442Z,8.20
2019-04-11T05:48:41.018Z,8.20
2019-04-11T05:54:49.733Z,8.30
2019-04-11T06:01:01.329Z,8.40
2019-04-11T06:07:11.398Z,8.40
2019-04-11T06:13:24.559Z,8.40
2019-04-11T06:19:33.477Z,8.30
2019-04-11T06:25:41.508Z,8.50
2019-04-11T06:31:59.258Z,8.50
2019-04-11T06:38:20.945Z,8.60
2019-04-11T06:44:28.242Z,8.80
2019-04-11T06:50:35.772Z,8.80
2019-04-11T06:56:41.213Z,9.10
2019-04-11T07:02:46.546Z,9.10
2019-04-11T07:09:10.319Z,9.20
2019-04-11T07:15:20.924Z,9.50
2019-04-11T07:21:25.394Z,9.80
2019-04-11T07:27:29.816Z,9.50
2019-04-11T07:33:54.005Z,9.90
2019-04-11T07:40:15.291Z,9.70
2019-04-11T07:46:22.763Z,9.80
2019-04-11T07:52:30.198Z,10.00
2019-04-11T07:58:33.798Z,10.00
2019-04-11T08:04:38.676Z,10.00
2019-04-11T08:10:51.048Z,10.00
2019-04-11T08:17:11.460Z,10.20
2019-04-11T08:23:16.294Z,10.40
2019-04-11T08:29:20.218Z,10.90
2019-04-11T08:35:36.607Z,11.20
2019-04-11T08:41:41.967Z,11.40
2019-04-11T08:47:49.272Z,11.70
2019-04-11T08:54:09.144Z,11.70
2019-04-11T09:00:31.301Z,11.70
2019-04-11T09:06:34.724Z,12.10
2019-04-11T09:12:41.200Z,12.00
2019-04-11T09:18:44.177Z,12.00
2019-04-11T09:25:05.401Z,12.10
2019-04-11T09:31:27.602Z,11.20
2019-04-11T09:37:30.593Z,11.40
2019-04-11T09:43:35.651Z,11.20
2019-04-11T09:49:39.999Z,11.30
2019-04-11T09:55:44.253Z,11.60
2019-04-11T10:01:56.145Z,11.70
2019-04-11T10:08:09.062Z,11.70
2019-04-11T10:14:15.608Z,11.60
2019-04-11T10:20:20.317Z,11.80
2019-04-11T10:26:25.762Z,12.10
2019-04-11T10:32:32.978Z,11.60
2019-04-11T10:38:37.035Z,11.70
2019-04-11T10:44:42.329Z,11.90
2019-04-11T10:50:47.091Z,11.50
2019-04-11T10:57:09.024Z,11.30
2019-04-11T11:03:20.326Z,12.00
2019-04-11T11:09:39.975Z,12.50
2019-04-11T11:15:44.359Z,12.60
2019-04-11T11:21:49.520Z,12.20
2019-04-11T11:27:52.374Z,12.10
2019-04-11T11:33:56.614Z,11.90
2019-04-11T11:40:07.727Z,11.70
2019-04-11T11:46:29.710Z,11.60
2019-04-11T11:52:49.589Z,11.60
2019-04-11T11:58:58.015Z,11.70
2019-04-11T12:05:02.589Z,11.80
2019-04-11T12:11:08.128Z,11.90
2019-04-11T12:17:29.326Z,11.80
2019-04-11T12:23:58.087Z,11.80
2019-04-11T12:30:13.423Z,11.60
2019-04-11T12:36:18.979Z,11.60
2019-04-11T12:42:25.976Z,11.70
2019-04-11T12:48:34.923Z,11.60
2019-04-11T12:54:43.658Z,11.40
2019-04-11T13:00:54.094Z,11.30
2019-04-11T13:07:15.415Z,11.40
2019-04-11T13:13:36.645Z,11.50
2019-04-11T13:20:04.694Z,11.60
2019-04-11T13:26:07.089Z,11.60
2019-04-11T13:32:28.189Z,11.80
2019-04-11T13:38:35.110Z,11.60
2019-04-11T13:44:38.845Z,11.70
2019-04-11T13:50:41.096Z,11.70
2019-04-11T13:57:01.964Z,11.40
2019-04-11T14:03:16.376Z,11.40
2019-04-11T14:09:30.444Z,11.50
2019-04-11T14:15:30.591Z,11.60
2019-04-11T14:21:33.023Z,11.80
2019-04-11T14:27:35.495Z,11.70
2019-04-11T14:33:42.594Z,11.60
2019-04-11T14:39:47.153Z,11.40
2019-04-11T14:45:53.936Z,11.20
2019-04-11T14:52:07.227Z,11.10
2019-04-11T14:58:27.902Z,11.20
2019-04-11T15:04:50.440Z,11.20
2019-04-11T15:11:04.524Z,10.80
2019-04-11T15:17:08.923Z,10.70
2019-04-11T15:23:13.354Z,10.40
2019-04-11T15:29:19.324Z,10.30
2019-04-11T15:35:22.036Z,10.30
2019-04-11T15:41:26.079Z,10.30
2019-04-11T15:47:29.960Z,10.30
2019-04-11T15:53:46.692Z,10.30
2019-04-11T15:59:57.314Z,10.10
2019-04-11T16:06:04.252Z,10.00
2019-04-11T16:12:08.885Z,10.10
2019-04-11T16:18:22.349Z,10.10
2019-04-11T16:24:27.634Z,10.00
2019-04-11T16:30:39.549Z,10.00
2019-04-11T16:36:46.744Z,10.00
2019-04-11T16:42:53.608Z,10.10
2019-04-11T16:48:55.902Z,10.00
2019-04-11T16:54:59.295Z,10.10
2019-04-11T17:01:06.570Z,10.10
2019-04-11T17:07:11.087Z,10.10
2019-04-11T17:13:13.761Z,10.00
2019-04-11T17:19:16.447Z,10.10
2019-04-11T17:25:19.822Z,10.20
2019-04-11T17:31:25.691Z,10.20
2019-04-11T17:37:27.149Z,10.10
2019-04-11T17:43:29.489Z,10.00
2019-04-11T17:49:31.822Z,9.80
2019-04-11T17:55:34.596Z,9.80
2019-04-11T18:01:38.010Z,9.80
2019-04-11T18:07:42.346Z,9.70
2019-04-11T18:13:44.803Z,9.60
2019-04-11T18:19:47.879Z,9.50
2019-04-11T18:25:53.883Z,9.50
2019-04-11T18:31:56.329Z,9.50
2019-04-11T18:38:06.945Z,9.50
2019-04-11T18:44:09.842Z,9.40
2019-04-11T18:50:15.363Z,9.40
2019-04-11T18:56:18.276Z,9.40
2019-04-11T19:02:21.997Z,9.30
2019-04-11T19:08:34.205Z,9.30
2019-04-11T19:14:37.173Z,9.20
2019-04-11T19:20:40.338Z,9.10
2019-04-11T19:26:46.033Z,9.10
2019-04-11T19:32:47.712Z,9.00
2019-04-11T19:38:53.521Z,8.90
2019-04-11T19:44:56.199Z,8.90
2019-04-11T19:50:59.538Z,8.90
2019-04-11T19:57:07.477Z,8.90
2019-04-11T20:03:12.960Z,8.90
2019-04-11T20:09:16.552Z,8.90
2019-04-11T20:15:19.731Z,8.90
2019-04-11T20:21:22.307Z,8.80
2019-04-11T20:27:29.470Z,8.80
2019-04-11T20:33:34.702Z,8.80
2019-04-11T20:39:37.144Z,8.80
2019-04-11T20:45:43.411Z,8.80
2019-04-11T20:51:47.677Z,8.70
2019-04-11T20:57:51.338Z,8.60
2019-04-11T21:03:55.140Z,8.60
2019-04-11T21:09:57.908Z,8.50
2019-04-11T21:16:00.322Z,8.40
2019-04-11T21:22:04.284Z,8.40
2019-04-11T21:28:07.262Z,8.40
2019-04-11T21:34:09.814Z,8.40
2019-04-11T21:40:12.423Z,8.30
2019-04-11T21:46:14.742Z,8.20
2019-04-11T21:52:17.031Z,8.20
2019-04-11T21:58:20.354Z,8.00
2019-04-11T22:04:27.117Z,8.00
2019-04-11T22:10:29.079Z,8.00
2019-04-11T22:16:33.081Z,7.80
2019-04-11T22:22:35.299Z,7.80
2019-04-11T22:28:37.603Z,7.80
2019-04-11T22:34:44.925Z,7.80
2019-04-11T22:40:47.286Z,7.80
2019-04-11T22:46:49.867Z,7.70
2019-04-11T22:52:52.238Z,7.60
2019-04-11T22:58:54.572Z,7.70
2019-04-11T23:04:57.490Z,7.60
2019-04-11T23:10:59.682Z,7.60
2019-04-11T23:17:02.302Z,7.60
2019-04-11T23:23:04.568Z,7.50
2019-04-11T23:29:06.962Z,7.40
2019-04-11T23:35:09.341Z,7.30
2019-04-11T23:41:11.581Z,7.20
2019-04-11T23:47:14.427Z,7.10
2019-04-11T23:53:16.676Z,7.10
2019-04-11T23:59:18.914Z,7.20
